sensor_id;sensor_type;location;lat;lon;timestamp;P1;durP1;ratioP1;P2;durP2;ratioP2
81378;SDS011;70830;42.290;-71.354;2023-06-22T00:02:00;0.10;;;0.10;;
81378;SDS011;70830;42.290;-71.354;2023-06-22T00:04:27;0.00;;;0.00;;
81378;SDS011;70830;42.290;-71.354;2023-06-22T00:06:52;0.10;;;0.10;;
81378;SDS011;70830;42.290;-71.354;2023-06-22T00:09:18;0.08;;;0.08;;
81378;SDS011;70830;42.290;-71.354;2023-06-22T00:11:44;0.00;;;0.00;;
81378;SDS011;70830;42.290;-71.354;2023-06-22T00:14:10;0.05;;;0.05;;
81378;SDS011;70830;42.290;-71.354;2023-06-22T00:16:36;0.00;;;0.00;;
81378;SDS011;70830;42.290;-71.354;2023-06-22T00:19:02;0.00;;;0.00;;
81378;SDS011;70830;42.290;-71.354;2023-06-22T00:21:29;0.00;;;0.00;;
81378;SDS011;70830;42.290;-71.354;2023-06-22T00:23:56;0.00;;;0.00;;
81378;SDS011;70830;42.290;-71.354;2023-06-22T00:26:22;0.00;;;0.00;;
81378;SDS011;70830;42.290;-71.354;2023-06-22T00:28:48;0.17;;;0.00;;
81378;SDS011;70830;42.290;-71.354;2023-06-22T00:31:14;0.00;;;0.00;;
81378;SDS011;70830;42.290;-71.354;2023-06-22T00:33:40;0.00;;;0.00;;
81378;SDS011;70830;42.290;-71.354;2023-06-22T00:36:06;0.08;;;0.00;;
81378;SDS011;70830;42.290;-71.354;2023-06-22T00:38:38;0.00;;;0.00;;
81378;SDS011;70830;42.290;-71.354;2023-06-22T00:41:05;0.00;;;0.00;;
81378;SDS011;70830;42.290;-71.354;2023-06-22T00:43:31;0.00;;;0.00;;
81378;SDS011;70830;42.290;-71.354;2023-06-22T00:45:57;0.00;;;0.00;;
81378;SDS011;70830;42.290;-71.354;2023-06-22T00:48:23;0.08;;;0.08;;
81378;SDS011;70830;42.290;-71.354;2023-06-22T00:50:49;0.20;;;0.10;;
81378;SDS011;70830;42.290;-71.354;2023-06-22T00:53:16;0.10;;;0.03;;
81378;SDS011;70830;42.290;-71.354;2023-06-22T00:55:44;0.47;;;0.00;;
81378;SDS011;70830;42.290;-71.354;2023-06-22T00:58:16;0.10;;;0.10;;
81378;SDS011;70830;42.290;-71.354;2023-06-22T01:00:47;0.10;;;0.05;;
81378;SDS011;70830;42.290;-71.354;2023-06-22T01:03:13;0.00;;;0.00;;
81378;SDS011;70830;42.290;-71.354;2023-06-22T01:05:39;0.00;;;0.00;;
81378;SDS011;70830;42.290;-71.354;2023-06-22T01:16:25;0.00;;;0.00;;
81378;SDS011;70830;42.290;-71.354;2023-06-22T01:18:55;0.00;;;0.00;;
81378;SDS011;70830;42.290;-71.354;2023-06-22T01:21:43;0.00;;;0.00;;
81378;SDS011;70830;42.290;-71.354;2023-06-22T01:24:15;0.00;;;0.00;;
81378;SDS011;70830;42.290;-71.354;2023-06-22T01:29:42;0.00;;;0.00;;
81378;SDS011;70830;42.290;-71.354;2023-06-22T01:32:10;0.20;;;0.10;;
81378;SDS011;70830;42.290;-71.354;2023-06-22T01:34:38;0.00;;;0.00;;
81378;SDS011;70830;42.290;-71.354;2023-06-22T01:37:05;0.00;;;0.00;;
81378;SDS011;70830;42.290;-71.354;2023-06-22T01:39:32;0.00;;;0.00;;
81378;SDS011;70830;42.290;-71.354;2023-06-22T01:42:03;0.00;;;0.00;;
81378;SDS011;70830;42.290;-71.354;2023-06-22T01:44:31;0.00;;;0.00;;
81378;SDS011;70830;42.290;-71.354;2023-06-22T01:46:59;0.00;;;0.00;;
81378;SDS011;70830;42.290;-71.354;2023-06-22T01:49:25;0.00;;;0.00;;
81378;SDS011;70830;42.290;-71.354;2023-06-22T01:51:51;0.20;;;0.10;;
81378;SDS011;70830;42.290;-71.354;2023-06-22T01:54:19;0.00;;;0.00;;
81378;SDS011;70830;42.290;-71.354;2023-06-22T01:56:45;0.00;;;0.00;;
81378;SDS011;70830;42.290;-71.354;2023-06-22T01:59:17;0.00;;;0.00;;
81378;SDS011;70830;42.290;-71.354;2023-06-22T02:01:54;0.00;;;0.00;;
81378;SDS011;70830;42.290;-71.354;2023-06-22T02:04:26;0.00;;;0.00;;
81378;SDS011;70830;42.290;-71.354;2023-06-22T02:06:58;0.00;;;0.00;;
81378;SDS011;70830;42.290;-71.354;2023-06-22T02:09:26;0.00;;;0.00;;
81378;SDS011;70830;42.290;-71.354;2023-06-22T02:11:55;0.00;;;0.00;;
81378;SDS011;70830;42.290;-71.354;2023-06-22T02:14:22;0.00;;;0.00;;
81378;SDS011;70830;42.290;-71.354;2023-06-22T02:16:50;0.00;;;0.00;;
81378;SDS011;70830;42.290;-71.354;2023-06-22T02:19:23;0.00;;;0.00;;
81378;SDS011;70830;42.290;-71.354;2023-06-22T02:21:50;0.10;;;0.10;;
81378;SDS011;70830;42.290;-71.354;2023-06-22T02:24:15;0.00;;;0.00;;
81378;SDS011;70830;42.290;-71.354;2023-06-22T02:26:42;0.00;;;0.00;;
81378;SDS011;70830;42.290;-71.354;2023-06-22T02:29:10;0.10;;;0.10;;
81378;SDS011;70830;42.290;-71.354;2023-06-22T02:31:37;0.20;;;0.20;;
81378;SDS011;70830;42.290;-71.354;2023-06-22T02:34:03;0.10;;;0.00;;
81378;SDS011;70830;42.290;-71.354;2023-06-22T02:36:29;0.10;;;0.10;;
81378;SDS011;70830;42.290;-71.354;2023-06-22T02:38:55;0.10;;;0.10;;
81378;SDS011;70830;42.290;-71.354;2023-06-22T02:41:24;0.32;;;0.10;;
81378;SDS011;70830;42.290;-71.354;2023-06-22T02:43:50;0.10;;;0.10;;
81378;SDS011;70830;42.290;-71.354;2023-06-22T02:46:16;0.00;;;0.00;;
81378;SDS011;70830;42.290;-71.354;2023-06-22T02:48:42;0.08;;;0.08;;
81378;SDS011;70830;42.290;-71.354;2023-06-22T02:51:08;0.10;;;0.10;;
81378;SDS011;70830;42.290;-71.354;2023-06-22T02:53:34;0.30;;;0.25;;
81378;SDS011;70830;42.290;-71.354;2023-06-22T02:56:01;1.75;;;0.10;;
81378;SDS011;70830;42.290;-71.354;2023-06-22T02:58:31;0.20;;;0.20;;
81378;SDS011;70830;42.290;-71.354;2023-06-22T03:01:04;0.45;;;0.20;;
81378;SDS011;70830;42.290;-71.354;2023-06-22T03:03:31;0.30;;;0.20;;
81378;SDS011;70830;42.290;-71.354;2023-06-22T03:05:57;0.38;;;0.10;;
81378;SDS011;70830;42.290;-71.354;2023-06-22T03:08:23;0.25;;;0.10;;
81378;SDS011;70830;42.290;-71.354;2023-06-22T03:10:49;0.10;;;0.10;;
81378;SDS011;70830;42.290;-71.354;2023-06-22T03:13:15;0.00;;;0.00;;
81378;SDS011;70830;42.290;-71.354;2023-06-22T03:15:41;0.10;;;0.10;;
81378;SDS011;70830;42.290;-71.354;2023-06-22T03:18:07;0.47;;;0.28;;
81378;SDS011;70830;42.290;-71.354;2023-06-22T03:20:33;0.17;;;0.17;;
81378;SDS011;70830;42.290;-71.354;2023-06-22T03:22:59;0.20;;;0.20;;
81378;SDS011;70830;42.290;-71.354;2023-06-22T03:25:25;0.13;;;0.10;;
81378;SDS011;70830;42.290;-71.354;2023-06-22T03:27:51;0.20;;;0.20;;
81378;SDS011;70830;42.290;-71.354;2023-06-22T03:30:17;0.10;;;0.10;;
81378;SDS011;70830;42.290;-71.354;2023-06-22T03:32:43;0.10;;;0.10;;
81378;SDS011;70830;42.290;-71.354;2023-06-22T03:35:09;0.10;;;0.10;;
81378;SDS011;70830;42.290;-71.354;2023-06-22T03:37:38;0.20;;;0.20;;
81378;SDS011;70830;42.290;-71.354;2023-06-22T03:40:04;0.22;;;0.13;;
81378;SDS011;70830;42.290;-71.354;2023-06-22T03:42:30;0.10;;;0.10;;
81378;SDS011;70830;42.290;-71.354;2023-06-22T03:44:56;0.10;;;0.10;;
81378;SDS011;70830;42.290;-71.354;2023-06-22T03:47:22;0.00;;;0.00;;
81378;SDS011;70830;42.290;-71.354;2023-06-22T03:49:48;0.17;;;0.00;;
81378;SDS011;70830;42.290;-71.354;2023-06-22T03:52:14;0.10;;;0.10;;
81378;SDS011;70830;42.290;-71.354;2023-06-22T03:54:40;0.10;;;0.10;;
81378;SDS011;70830;42.290;-71.354;2023-06-22T03:57:06;0.13;;;0.10;;
81378;SDS011;70830;42.290;-71.354;2023-06-22T03:59:32;0.10;;;0.10;;
81378;SDS011;70830;42.290;-71.354;2023-06-22T04:01:58;0.10;;;0.10;;
81378;SDS011;70830;42.290;-71.354;2023-06-22T04:04:24;0.20;;;0.20;;
81378;SDS011;70830;42.290;-71.354;2023-06-22T04:06:50;0.10;;;0.10;;
81378;SDS011;70830;42.290;-71.354;2023-06-22T04:09:16;0.13;;;0.00;;
81378;SDS011;70830;42.290;-71.354;2023-06-22T04:11:42;0.20;;;0.13;;
81378;SDS011;70830;42.290;-71.354;2023-06-22T04:14:07;0.00;;;0.00;;
81378;SDS011;70830;42.290;-71.354;2023-06-22T04:16:33;0.00;;;0.00;;
81378;SDS011;70830;42.290;-71.354;2023-06-22T04:18:59;0.00;;;0.00;;
81378;SDS011;70830;42.290;-71.354;2023-06-22T04:21:25;0.03;;;0.03;;
81378;SDS011;70830;42.290;-71.354;2023-06-22T04:23:51;0.00;;;0.00;;
81378;SDS011;70830;42.290;-71.354;2023-06-22T04:26:17;0.47;;;0.10;;
81378;SDS011;70830;42.290;-71.354;2023-06-22T04:28:46;0.00;;;0.00;;
81378;SDS011;70830;42.290;-71.354;2023-06-22T04:31:17;0.00;;;0.00;;
81378;SDS011;70830;42.290;-71.354;2023-06-22T04:33:46;0.00;;;0.00;;
81378;SDS011;70830;42.290;-71.354;2023-06-22T04:36:12;0.15;;;0.10;;
81378;SDS011;70830;42.290;-71.354;2023-06-22T04:38:39;0.10;;;0.03;;
81378;SDS011;70830;42.290;-71.354;2023-06-22T04:41:05;0.00;;;0.00;;
81378;SDS011;70830;42.290;-71.354;2023-06-22T04:43:33;0.10;;;0.10;;
81378;SDS011;70830;42.290;-71.354;2023-06-22T04:45:59;0.10;;;0.10;;
81378;SDS011;70830;42.290;-71.354;2023-06-22T04:48:31;0.10;;;0.10;;
81378;SDS011;70830;42.290;-71.354;2023-06-22T04:50:58;0.00;;;0.00;;
81378;SDS011;70830;42.290;-71.354;2023-06-22T04:53:28;0.00;;;0.00;;
81378;SDS011;70830;42.290;-71.354;2023-06-22T04:55:55;0.10;;;0.10;;
81378;SDS011;70830;42.290;-71.354;2023-06-22T04:58:21;0.03;;;0.00;;
81378;SDS011;70830;42.290;-71.354;2023-06-22T05:00:47;0.00;;;0.00;;
81378;SDS011;70830;42.290;-71.354;2023-06-22T05:03:17;0.10;;;0.10;;
81378;SDS011;70830;42.290;-71.354;2023-06-22T05:05:43;0.00;;;0.00;;
81378;SDS011;70830;42.290;-71.354;2023-06-22T05:08:10;0.00;;;0.00;;
81378;SDS011;70830;42.290;-71.354;2023-06-22T05:10:38;0.10;;;0.10;;
81378;SDS011;70830;42.290;-71.354;2023-06-22T05:13:04;0.00;;;0.00;;
81378;SDS011;70830;42.290;-71.354;2023-06-22T05:15:30;0.00;;;0.00;;
81378;SDS011;70830;42.290;-71.354;2023-06-22T05:18:02;0.00;;;0.00;;
81378;SDS011;70830;42.290;-71.354;2023-06-22T05:20:31;0.00;;;0.00;;
81378;SDS011;70830;42.290;-71.354;2023-06-22T05:22:58;0.00;;;0.00;;
81378;SDS011;70830;42.290;-71.354;2023-06-22T05:25:24;0.00;;;0.00;;
81378;SDS011;70830;42.290;-71.354;2023-06-22T05:27:51;0.00;;;0.00;;
81378;SDS011;70830;42.290;-71.354;2023-06-22T05:30:17;0.00;;;0.00;;
81378;SDS011;70830;42.290;-71.354;2023-06-22T05:32:43;0.00;;;0.00;;
81378;SDS011;70830;42.290;-71.354;2023-06-22T05:35:09;0.00;;;0.00;;
81378;SDS011;70830;42.290;-71.354;2023-06-22T05:37:35;0.10;;;0.10;;
81378;SDS011;70830;42.290;-71.354;2023-06-22T05:40:02;0.10;;;0.10;;
81378;SDS011;70830;42.290;-71.354;2023-06-22T05:42:29;0.00;;;0.00;;
81378;SDS011;70830;42.290;-71.354;2023-06-22T05:44:55;0.00;;;0.00;;
81378;SDS011;70830;42.290;-71.354;2023-06-22T05:47:21;0.00;;;0.00;;
81378;SDS011;70830;42.290;-71.354;2023-06-22T05:49:48;0.00;;;0.00;;
81378;SDS011;70830;42.290;-71.354;2023-06-22T05:52:13;0.00;;;0.00;;
81378;SDS011;70830;42.290;-71.354;2023-06-22T05:54:39;0.00;;;0.00;;
81378;SDS011;70830;42.290;-71.354;2023-06-22T05:57:06;0.05;;;0.00;;
81378;SDS011;70830;42.290;-71.354;2023-06-22T05:59:32;0.00;;;0.00;;
81378;SDS011;70830;42.290;-71.354;2023-06-22T06:01:58;0.10;;;0.10;;
81378;SDS011;70830;42.290;-71.354;2023-06-22T06:04:24;0.20;;;0.20;;
81378;SDS011;70830;42.290;-71.354;2023-06-22T06:06:51;0.00;;;0.00;;
81378;SDS011;70830;42.290;-71.354;2023-06-22T06:09:19;0.00;;;0.00;;
81378;SDS011;70830;42.290;-71.354;2023-06-22T06:11:44;0.00;;;0.00;;
81378;SDS011;70830;42.290;-71.354;2023-06-22T06:14:10;0.00;;;0.00;;
81378;SDS011;70830;42.290;-71.354;2023-06-22T06:16:38;0.00;;;0.00;;
81378;SDS011;70830;42.290;-71.354;2023-06-22T06:19:04;0.00;;;0.00;;
81378;SDS011;70830;42.290;-71.354;2023-06-22T06:21:29;0.00;;;0.00;;
81378;SDS011;70830;42.290;-71.354;2023-06-22T06:23:55;0.10;;;0.10;;
81378;SDS011;70830;42.290;-71.354;2023-06-22T06:26:21;0.22;;;0.08;;
81378;SDS011;70830;42.290;-71.354;2023-06-22T06:28:53;0.00;;;0.00;;
81378;SDS011;70830;42.290;-71.354;2023-06-22T06:31:20;0.00;;;0.00;;
81378;SDS011;70830;42.290;-71.354;2023-06-22T06:33:46;0.05;;;0.00;;
81378;SDS011;70830;42.290;-71.354;2023-06-22T06:36:12;0.10;;;0.00;;
81378;SDS011;70830;42.290;-71.354;2023-06-22T06:38:37;0.10;;;0.10;;
81378;SDS011;70830;42.290;-71.354;2023-06-22T06:41:03;0.00;;;0.00;;
81378;SDS011;70830;42.290;-71.354;2023-06-22T06:43:29;0.00;;;0.00;;
81378;SDS011;70830;42.290;-71.354;2023-06-22T06:45:55;0.00;;;0.00;;
81378;SDS011;70830;42.290;-71.354;2023-06-22T06:48:21;0.00;;;0.00;;
81378;SDS011;70830;42.290;-71.354;2023-06-22T06:50:47;0.00;;;0.00;;
81378;SDS011;70830;42.290;-71.354;2023-06-22T06:53:13;0.00;;;0.00;;
81378;SDS011;70830;42.290;-71.354;2023-06-22T06:55:39;0.00;;;0.00;;
81378;SDS011;70830;42.290;-71.354;2023-06-22T06:58:04;0.00;;;0.00;;
81378;SDS011;70830;42.290;-71.354;2023-06-22T07:00:33;0.00;;;0.00;;
81378;SDS011;70830;42.290;-71.354;2023-06-22T07:02:58;0.00;;;0.00;;
81378;SDS011;70830;42.290;-71.354;2023-06-22T07:05:24;0.00;;;0.00;;
81378;SDS011;70830;42.290;-71.354;2023-06-22T07:07:50;0.00;;;0.00;;
81378;SDS011;70830;42.290;-71.354;2023-06-22T07:10:16;0.00;;;0.00;;
81378;SDS011;70830;42.290;-71.354;2023-06-22T07:12:42;0.00;;;0.00;;
81378;SDS011;70830;42.290;-71.354;2023-06-22T07:15:08;0.00;;;0.00;;
81378;SDS011;70830;42.290;-71.354;2023-06-22T07:17:36;0.00;;;0.00;;
81378;SDS011;70830;42.290;-71.354;2023-06-22T07:20:04;0.10;;;0.00;;
81378;SDS011;70830;42.290;-71.354;2023-06-22T07:22:40;0.32;;;0.00;;
81378;SDS011;70830;42.290;-71.354;2023-06-22T07:25:07;0.00;;;0.00;;
81378;SDS011;70830;42.290;-71.354;2023-06-22T07:27:42;0.00;;;0.00;;
81378;SDS011;70830;42.290;-71.354;2023-06-22T07:30:10;0.00;;;0.00;;
81378;SDS011;70830;42.290;-71.354;2023-06-22T07:32:37;0.00;;;0.00;;
81378;SDS011;70830;42.290;-71.354;2023-06-22T07:35:03;0.00;;;0.00;;
81378;SDS011;70830;42.290;-71.354;2023-06-22T07:37:29;0.00;;;0.00;;
81378;SDS011;70830;42.290;-71.354;2023-06-22T07:39:58;0.00;;;0.00;;
81378;SDS011;70830;42.290;-71.354;2023-06-22T07:42:27;0.00;;;0.00;;
81378;SDS011;70830;42.290;-71.354;2023-06-22T07:44:55;0.00;;;0.00;;
81378;SDS011;70830;42.290;-71.354;2023-06-22T07:47:21;0.00;;;0.00;;
81378;SDS011;70830;42.290;-71.354;2023-06-22T07:49:50;0.00;;;0.00;;
81378;SDS011;70830;42.290;-71.354;2023-06-22T07:52:17;0.10;;;0.10;;
81378;SDS011;70830;42.290;-71.354;2023-06-22T07:54:43;0.10;;;0.10;;
81378;SDS011;70830;42.290;-71.354;2023-06-22T07:57:09;0.00;;;0.00;;
81378;SDS011;70830;42.290;-71.354;2023-06-22T07:59:35;0.00;;;0.00;;
81378;SDS011;70830;42.290;-71.354;2023-06-22T08:02:01;0.00;;;0.00;;
81378;SDS011;70830;42.290;-71.354;2023-06-22T08:04:28;0.00;;;0.00;;
81378;SDS011;70830;42.290;-71.354;2023-06-22T08:06:56;0.00;;;0.00;;
81378;SDS011;70830;42.290;-71.354;2023-06-22T08:09:22;0.00;;;0.00;;
81378;SDS011;70830;42.290;-71.354;2023-06-22T08:11:48;0.00;;;0.00;;
81378;SDS011;70830;42.290;-71.354;2023-06-22T08:14:14;0.00;;;0.00;;
81378;SDS011;70830;42.290;-71.354;2023-06-22T08:16:41;0.00;;;0.00;;
81378;SDS011;70830;42.290;-71.354;2023-06-22T08:19:07;0.00;;;0.00;;
81378;SDS011;70830;42.290;-71.354;2023-06-22T08:21:33;0.00;;;0.00;;
81378;SDS011;70830;42.290;-71.354;2023-06-22T08:23:58;0.00;;;0.00;;
81378;SDS011;70830;42.290;-71.354;2023-06-22T08:26:24;0.15;;;0.00;;
81378;SDS011;70830;42.290;-71.354;2023-06-22T08:28:50;0.03;;;0.03;;
81378;SDS011;70830;42.290;-71.354;2023-06-22T08:31:17;0.00;;;0.00;;
81378;SDS011;70830;42.290;-71.354;2023-06-22T08:33:43;0.00;;;0.00;;
81378;SDS011;70830;42.290;-71.354;2023-06-22T08:36:10;0.00;;;0.00;;
81378;SDS011;70830;42.290;-71.354;2023-06-22T08:38:38;0.10;;;0.10;;
81378;SDS011;70830;42.290;-71.354;2023-06-22T08:41:04;0.10;;;0.10;;
81378;SDS011;70830;42.290;-71.354;2023-06-22T08:43:30;0.05;;;0.05;;
81378;SDS011;70830;42.290;-71.354;2023-06-22T08:45:56;0.00;;;0.00;;
81378;SDS011;70830;42.290;-71.354;2023-06-22T08:48:21;0.00;;;0.00;;
81378;SDS011;70830;42.290;-71.354;2023-06-22T08:50:47;0.13;;;0.13;;
81378;SDS011;70830;42.290;-71.354;2023-06-22T08:53:13;0.00;;;0.00;;
81378;SDS011;70830;42.290;-71.354;2023-06-22T08:55:39;0.00;;;0.00;;
81378;SDS011;70830;42.290;-71.354;2023-06-22T08:58:05;0.00;;;0.00;;
81378;SDS011;70830;42.290;-71.354;2023-06-22T09:00:31;0.10;;;0.10;;
81378;SDS011;70830;42.290;-71.354;2023-06-22T09:03:00;0.03;;;0.03;;
81378;SDS011;70830;42.290;-71.354;2023-06-22T09:05:25;0.00;;;0.00;;
81378;SDS011;70830;42.290;-71.354;2023-06-22T09:07:51;0.00;;;0.00;;
81378;SDS011;70830;42.290;-71.354;2023-06-22T09:10:20;0.10;;;0.10;;
81378;SDS011;70830;42.290;-71.354;2023-06-22T09:12:46;0.10;;;0.10;;
81378;SDS011;70830;42.290;-71.354;2023-06-22T09:15:11;0.08;;;0.08;;
81378;SDS011;70830;42.290;-71.354;2023-06-22T09:17:37;0.00;;;0.00;;
81378;SDS011;70830;42.290;-71.354;2023-06-22T09:20:03;0.17;;;0.00;;
81378;SDS011;70830;42.290;-71.354;2023-06-22T09:22:31;0.00;;;0.00;;
81378;SDS011;70830;42.290;-71.354;2023-06-22T09:24:57;0.10;;;0.10;;
81378;SDS011;70830;42.290;-71.354;2023-06-22T09:27:25;0.10;;;0.10;;
81378;SDS011;70830;42.290;-71.354;2023-06-22T09:29:50;0.10;;;0.10;;
81378;SDS011;70830;42.290;-71.354;2023-06-22T09:32:16;0.00;;;0.00;;
81378;SDS011;70830;42.290;-71.354;2023-06-22T09:34:42;0.00;;;0.00;;
81378;SDS011;70830;42.290;-71.354;2023-06-22T09:37:08;0.00;;;0.00;;
81378;SDS011;70830;42.290;-71.354;2023-06-22T09:39:34;0.00;;;0.00;;
81378;SDS011;70830;42.290;-71.354;2023-06-22T09:42:01;0.10;;;0.10;;
81378;SDS011;70830;42.290;-71.354;2023-06-22T09:44:27;0.00;;;0.00;;
81378;SDS011;70830;42.290;-71.354;2023-06-22T09:46:53;0.00;;;0.00;;
81378;SDS011;70830;42.290;-71.354;2023-06-22T09:49:19;0.10;;;0.10;;
81378;SDS011;70830;42.290;-71.354;2023-06-22T09:51:45;0.88;;;0.10;;
81378;SDS011;70830;42.290;-71.354;2023-06-22T09:54:10;0.10;;;0.10;;
81378;SDS011;70830;42.290;-71.354;2023-06-22T09:56:36;0.10;;;0.10;;
81378;SDS011;70830;42.290;-71.354;2023-06-22T09:59:02;0.35;;;0.00;;
81378;SDS011;70830;42.290;-71.354;2023-06-22T10:01:28;0.10;;;0.10;;
81378;SDS011;70830;42.290;-71.354;2023-06-22T10:03:55;0.80;;;0.40;;
81378;SDS011;70830;42.290;-71.354;2023-06-22T10:06:21;0.13;;;0.10;;
81378;SDS011;70830;42.290;-71.354;2023-06-22T10:08:48;0.10;;;0.10;;
81378;SDS011;70830;42.290;-71.354;2023-06-22T10:11:15;0.00;;;0.00;;
81378;SDS011;70830;42.290;-71.354;2023-06-22T10:13:41;0.00;;;0.00;;
81378;SDS011;70830;42.290;-71.354;2023-06-22T10:16:07;0.10;;;0.00;;
81378;SDS011;70830;42.290;-71.354;2023-06-22T10:18:33;0.00;;;0.00;;
81378;SDS011;70830;42.290;-71.354;2023-06-22T10:20:59;0.10;;;0.10;;
81378;SDS011;70830;42.290;-71.354;2023-06-22T10:23:25;0.03;;;0.03;;
81378;SDS011;70830;42.290;-71.354;2023-06-22T10:25:51;0.08;;;0.08;;
81378;SDS011;70830;42.290;-71.354;2023-06-22T10:28:17;0.10;;;0.10;;
81378;SDS011;70830;42.290;-71.354;2023-06-22T10:30:43;0.10;;;0.10;;
81378;SDS011;70830;42.290;-71.354;2023-06-22T10:33:09;0.30;;;0.10;;
81378;SDS011;70830;42.290;-71.354;2023-06-22T10:35:36;0.03;;;0.03;;
81378;SDS011;70830;42.290;-71.354;2023-06-22T10:38:03;0.00;;;0.00;;
81378;SDS011;70830;42.290;-71.354;2023-06-22T10:40:29;0.32;;;0.10;;
81378;SDS011;70830;42.290;-71.354;2023-06-22T10:42:55;0.00;;;0.00;;
81378;SDS011;70830;42.290;-71.354;2023-06-22T10:45:21;0.28;;;0.10;;
81378;SDS011;70830;42.290;-71.354;2023-06-22T10:47:47;0.05;;;0.05;;
81378;SDS011;70830;42.290;-71.354;2023-06-22T10:50:13;0.20;;;0.10;;
81378;SDS011;70830;42.290;-71.354;2023-06-22T10:52:39;0.88;;;0.13;;
81378;SDS011;70830;42.290;-71.354;2023-06-22T10:55:09;0.00;;;0.00;;
81378;SDS011;70830;42.290;-71.354;2023-06-22T10:57:35;1.65;;;0.10;;
81378;SDS011;70830;42.290;-71.354;2023-06-22T11:00:02;0.15;;;0.15;;
81378;SDS011;70830;42.290;-71.354;2023-06-22T11:02:31;0.10;;;0.10;;
81378;SDS011;70830;42.290;-71.354;2023-06-22T11:04:57;0.10;;;0.10;;
81378;SDS011;70830;42.290;-71.354;2023-06-22T11:07:25;0.17;;;0.17;;
81378;SDS011;70830;42.290;-71.354;2023-06-22T11:09:54;0.10;;;0.10;;
81378;SDS011;70830;42.290;-71.354;2023-06-22T11:12:20;0.10;;;0.10;;
81378;SDS011;70830;42.290;-71.354;2023-06-22T11:14:45;0.20;;;0.20;;
81378;SDS011;70830;42.290;-71.354;2023-06-22T11:17:11;0.20;;;0.20;;
81378;SDS011;70830;42.290;-71.354;2023-06-22T11:19:37;0.20;;;0.20;;
81378;SDS011;70830;42.290;-71.354;2023-06-22T11:22:03;0.10;;;0.10;;
81378;SDS011;70830;42.290;-71.354;2023-06-22T11:24:29;0.30;;;0.20;;
81378;SDS011;70830;42.290;-71.354;2023-06-22T11:26:55;0.10;;;0.10;;
81378;SDS011;70830;42.290;-71.354;2023-06-22T11:29:21;0.10;;;0.10;;
81378;SDS011;70830;42.290;-71.354;2023-06-22T11:31:47;0.22;;;0.20;;
81378;SDS011;70830;42.290;-71.354;2023-06-22T11:34:13;0.10;;;0.10;;
81378;SDS011;70830;42.290;-71.354;2023-06-22T11:36:39;0.30;;;0.17;;
81378;SDS011;70830;42.290;-71.354;2023-06-22T11:39:05;0.50;;;0.20;;
81378;SDS011;70830;42.290;-71.354;2023-06-22T11:41:31;0.10;;;0.10;;
81378;SDS011;70830;42.290;-71.354;2023-06-22T11:43:57;0.17;;;0.17;;
81378;SDS011;70830;42.290;-71.354;2023-06-22T11:46:23;0.77;;;0.32;;
81378;SDS011;70830;42.290;-71.354;2023-06-22T11:48:48;0.30;;;0.20;;
81378;SDS011;70830;42.290;-71.354;2023-06-22T11:51:15;0.10;;;0.10;;
81378;SDS011;70830;42.290;-71.354;2023-06-22T11:53:40;0.35;;;0.20;;
81378;SDS011;70830;42.290;-71.354;2023-06-22T11:56:06;0.38;;;0.20;;
81378;SDS011;70830;42.290;-71.354;2023-06-22T11:58:32;2.60;;;0.30;;
81378;SDS011;70830;42.290;-71.354;2023-06-22T12:00:58;0.20;;;0.20;;
81378;SDS011;70830;42.290;-71.354;2023-06-22T12:03:25;0.40;;;0.28;;
81378;SDS011;70830;42.290;-71.354;2023-06-22T12:05:51;0.20;;;0.17;;
81378;SDS011;70830;42.290;-71.354;2023-06-22T12:08:17;0.90;;;0.30;;
81378;SDS011;70830;42.290;-71.354;2023-06-22T12:10:43;1.27;;;0.40;;
81378;SDS011;70830;42.290;-71.354;2023-06-22T12:13:09;0.60;;;0.32;;
81378;SDS011;70830;42.290;-71.354;2023-06-22T12:15:35;0.93;;;0.30;;
81378;SDS011;70830;42.290;-71.354;2023-06-22T12:18:01;2.60;;;0.20;;
81378;SDS011;70830;42.290;-71.354;2023-06-22T12:20:28;0.10;;;0.10;;
81378;SDS011;70830;42.290;-71.354;2023-06-22T12:22:54;0.20;;;0.20;;
81378;SDS011;70830;42.290;-71.354;2023-06-22T12:25:21;0.20;;;0.20;;
81378;SDS011;70830;42.290;-71.354;2023-06-22T12:27:48;0.43;;;0.22;;
81378;SDS011;70830;42.290;-71.354;2023-06-22T12:30:15;0.52;;;0.20;;
81378;SDS011;70830;42.290;-71.354;2023-06-22T12:32:42;0.03;;;0.03;;
81378;SDS011;70830;42.290;-71.354;2023-06-22T12:35:08;0.17;;;0.10;;
81378;SDS011;70830;42.290;-71.354;2023-06-22T12:37:41;0.20;;;0.10;;
81378;SDS011;70830;42.290;-71.354;2023-06-22T12:40:08;0.25;;;0.10;;
81378;SDS011;70830;42.290;-71.354;2023-06-22T12:42:35;0.00;;;0.00;;
81378;SDS011;70830;42.290;-71.354;2023-06-22T12:45:00;1.00;;;0.22;;
81378;SDS011;70830;42.290;-71.354;2023-06-22T12:47:26;0.60;;;0.30;;
81378;SDS011;70830;42.290;-71.354;2023-06-22T12:49:52;0.20;;;0.13;;
81378;SDS011;70830;42.290;-71.354;2023-06-22T12:52:18;0.30;;;0.20;;
81378;SDS011;70830;42.290;-71.354;2023-06-22T12:54:44;0.38;;;0.20;;
81378;SDS011;70830;42.290;-71.354;2023-06-22T12:57:10;0.20;;;0.10;;
81378;SDS011;70830;42.290;-71.354;2023-06-22T12:59:36;0.38;;;0.20;;
81378;SDS011;70830;42.290;-71.354;2023-06-22T13:02:02;0.20;;;0.17;;
81378;SDS011;70830;42.290;-71.354;2023-06-22T13:04:28;0.38;;;0.20;;
81378;SDS011;70830;42.290;-71.354;2023-06-22T13:06:54;0.40;;;0.35;;
81378;SDS011;70830;42.290;-71.354;2023-06-22T13:09:20;0.57;;;0.20;;
81378;SDS011;70830;42.290;-71.354;2023-06-22T13:11:45;0.10;;;0.10;;
81378;SDS011;70830;42.290;-71.354;2023-06-22T13:14:11;0.20;;;0.20;;
81378;SDS011;70830;42.290;-71.354;2023-06-22T13:16:37;0.45;;;0.20;;
81378;SDS011;70830;42.290;-71.354;2023-06-22T13:19:03;0.28;;;0.28;;
81378;SDS011;70830;42.290;-71.354;2023-06-22T13:21:30;0.10;;;0.10;;
81378;SDS011;70830;42.290;-71.354;2023-06-22T13:23:56;0.52;;;0.40;;
81378;SDS011;70830;42.290;-71.354;2023-06-22T13:26:22;0.20;;;0.20;;
81378;SDS011;70830;42.290;-71.354;2023-06-22T13:28:48;0.60;;;0.40;;
81378;SDS011;70830;42.290;-71.354;2023-06-22T13:31:13;1.00;;;0.30;;
81378;SDS011;70830;42.290;-71.354;2023-06-22T13:33:39;0.50;;;0.25;;
81378;SDS011;70830;42.290;-71.354;2023-06-22T13:36:10;0.90;;;0.40;;
81378;SDS011;70830;42.290;-71.354;2023-06-22T13:38:36;0.38;;;0.20;;
81378;SDS011;70830;42.290;-71.354;2023-06-22T13:41:04;1.02;;;0.35;;
81378;SDS011;70830;42.290;-71.354;2023-06-22T13:43:30;0.57;;;0.30;;
81378;SDS011;70830;42.290;-71.354;2023-06-22T13:45:57;0.73;;;0.30;;
81378;SDS011;70830;42.290;-71.354;2023-06-22T13:48:23;0.70;;;0.30;;
81378;SDS011;70830;42.290;-71.354;2023-06-22T13:50:51;2.10;;;0.20;;
81378;SDS011;70830;42.290;-71.354;2023-06-22T13:53:17;0.50;;;0.20;;
81378;SDS011;70830;42.290;-71.354;2023-06-22T13:55:43;0.75;;;0.30;;
81378;SDS011;70830;42.290;-71.354;2023-06-22T13:58:09;0.30;;;0.30;;
81378;SDS011;70830;42.290;-71.354;2023-06-22T14:00:36;0.40;;;0.30;;
81378;SDS011;70830;42.290;-71.354;2023-06-22T14:03:02;0.50;;;0.30;;
81378;SDS011;70830;42.290;-71.354;2023-06-22T14:05:28;0.65;;;0.20;;
81378;SDS011;70830;42.290;-71.354;2023-06-22T14:07:54;0.63;;;0.20;;
81378;SDS011;70830;42.290;-71.354;2023-06-22T14:10:20;0.20;;;0.20;;
81378;SDS011;70830;42.290;-71.354;2023-06-22T14:12:46;1.55;;;0.20;;
81378;SDS011;70830;42.290;-71.354;2023-06-22T14:15:12;0.40;;;0.20;;
81378;SDS011;70830;42.290;-71.354;2023-06-22T14:17:37;0.90;;;0.50;;
81378;SDS011;70830;42.290;-71.354;2023-06-22T14:20:03;0.77;;;0.45;;
81378;SDS011;70830;42.290;-71.354;2023-06-22T14:22:31;0.13;;;0.13;;
81378;SDS011;70830;42.290;-71.354;2023-06-22T14:24:56;0.38;;;0.38;;
81378;SDS011;70830;42.290;-71.354;2023-06-22T14:27:23;0.45;;;0.35;;
81378;SDS011;70830;42.290;-71.354;2023-06-22T14:29:49;0.38;;;0.30;;